Time;durP1;ratioP1;P1;durP2;ratioP2;P2;SDS_P1;SDS_P2;PMS_P1;PMS_P2;Temp;Humidity;BMP_temperature;BMP_pressure;BME280_temperature;BME280_humidity;BME280_pressure;Samples;Min_cycle;Max_cycle;Signal;HPM_P1;HPM_P2
2022/07/15 00:00:21;;;;;;;1.80;1.70;;;21.30;99.90;;;;;;5053064;28;20210;-84
2022/07/15 00:02:49;;;;;;;1.13;1.13;;;21.10;99.90;;;;;;5052587;28;20206;-84
2022/07/15 00:05:18;;;;;;;1.85;1.60;;;20.90;99.90;;;;;;5056790;23;20322;-86
2022/07/15 00:07:48;;;;;;;1.38;1.27;;;20.60;99.90;;;;;;5032585;28;20233;-86
2022/07/15 00:10:18;;;;;;;1.30;1.30;;;20.40;99.90;;;;;;5032486;28;20202;-86
2022/07/15 00:12:49;;;;;;;2.25;1.60;;;20.10;99.90;;;;;;5032802;28;20206;-86
2022/07/15 00:15:19;;;;;;;1.38;1.27;;;19.90;99.90;;;;;;5032577;28;20313;-86
2022/07/15 00:17:47;;;;;;;2.20;2.00;;;19.80;99.90;;;;;;5032809;28;20207;-86
2022/07/15 00:20:16;;;;;;;1.70;1.60;;;19.80;99.90;;;;;;5032169;28;20214;-86
2022/07/15 00:22:47;;;;;;;1.77;1.50;;;19.70;99.90;;;;;;5032380;28;20233;-86
2022/07/15 00:25:17;;;;;;;1.63;1.42;;;19.70;99.90;;;;;;5032130;28;20277;-86
2022/07/15 00:27:53;;;;;;;2.65;2.00;;;19.70;99.90;;;;;;5032265;28;20260;-85
2022/07/15 00:30:21;;;;;;;1.75;1.65;;;19.60;99.90;;;;;;5032132;28;20293;-86
2022/07/15 00:32:50;;;;;;;3.58;1.80;;;19.60;99.90;;;;;;5031049;28;20214;-85
2022/07/15 00:35:18;;;;;;;1.70;1.60;;;19.70;99.90;;;;;;5032289;28;20292;-86
2022/07/15 00:37:48;;;;;;;2.05;1.85;;;19.80;99.90;;;;;;5034321;28;20198;-86
2022/07/15 00:40:17;;;;;;;1.95;1.50;;;19.90;99.90;;;;;;5034019;28;20241;-86
2022/07/15 00:42:45;;;;;;;5.05;2.15;;;19.90;99.90;;;;;;5034144;28;20203;-85
2022/07/15 00:45:15;;;;;;;1.90;1.80;;;19.90;99.90;;;;;;5034142;28;20227;-86
2022/07/15 00:47:44;;;;;;;3.97;1.77;;;19.90;99.90;;;;;;5033999;28;20226;-86
2022/07/15 00:50:13;;;;;;;1.55;1.38;;;19.70;99.90;;;;;;5034054;28;20202;-86
2022/07/15 00:52:48;;;;;;;1.73;1.63;;;19.50;99.90;;;;;;5034034;28;20199;-86
2022/07/15 00:55:19;;;;;;;2.35;2.15;;;19.30;99.90;;;;;;5034284;28;20229;-86
2022/07/15 00:57:50;;;;;;;2.00;1.90;;;19.20;99.90;;;;;;5034276;28;20202;-86
2022/07/15 01:00:18;;;;;;;2.03;1.90;;;19.20;99.90;;;;;;5033802;28;20203;-86
2022/07/15 01:02:50;;;;;;;1.95;1.85;;;19.00;99.90;;;;;;5033870;28;20202;-86
2022/07/15 01:05:20;;;;;;;1.90;1.80;;;19.00;99.90;;;;;;5033277;28;20234;-86
2022/07/15 01:07:50;;;;;;;2.08;1.98;;;18.90;99.90;;;;;;5033860;28;20226;-86
2022/07/15 01:10:21;;;;;;;1.92;1.83;;;18.90;99.90;;;;;;5033557;28;20207;-86
2022/07/15 01:12:51;;;;;;;2.50;1.92;;;18.90;99.90;;;;;;5033974;28;20210;-86
2022/07/15 01:15:20;;;;;;;8.93;1.92;;;18.90;99.90;;;;;;5033580;28;20242;-85
2022/07/15 01:17:48;;;;;;;5.30;2.20;;;18.90;99.90;;;;;;5033525;28;20256;-86
2022/07/15 01:20:17;;;;;;;2.53;2.38;;;18.80;99.90;;;;;;5033126;28;20238;-86
2022/07/15 01:22:47;;;;;;;3.08;2.05;;;18.70;99.90;;;;;;5032977;28;20230;-86
2022/07/15 01:25:16;;;;;;;2.33;2.15;;;18.70;99.90;;;;;;5033573;28;20284;-85
2022/07/15 01:27:44;;;;;;;2.50;2.30;;;18.60;99.90;;;;;;5033422;28;20229;-86
2022/07/15 01:30:13;;;;;;;2.30;2.10;;;18.60;99.90;;;;;;5033180;28;20206;-85
2022/07/15 01:32:41;;;;;;;1.92;1.77;;;18.60;99.90;;;;;;5033100;28;20206;-85
2022/07/15 01:35:10;;;;;;;2.58;2.38;;;18.60;99.90;;;;;;5033114;28;20242;-86
2022/07/15 01:37:38;;;;;;;2.28;2.13;;;18.60;99.90;;;;;;5033393;28;20225;-85
2022/07/15 01:40:09;;;;;;;2.63;2.45;;;18.50;99.90;;;;;;5033160;28;20210;-85
2022/07/15 01:42:38;;;;;;;2.45;2.30;;;18.50;99.90;;;;;;5032561;28;20202;-85
2022/07/15 01:45:08;;;;;;;2.42;2.15;;;18.50;99.90;;;;;;5033296;28;20230;-85
2022/07/15 01:47:43;;;;;;;2.25;2.05;;;18.50;99.90;;;;;;5033237;28;20260;-86
2022/07/15 01:50:10;;;;;;;2.25;2.08;;;18.40;99.90;;;;;;5033503;28;20198;-86
2022/07/15 01:52:39;;;;;;;2.60;2.40;;;18.50;99.90;;;;;;5032941;28;20210;-86
2022/07/15 01:55:10;;;;;;;2.70;2.40;;;18.40;99.90;;;;;;5032886;28;20234;-85
2022/07/15 01:57:39;;;;;;;2.50;2.30;;;18.40;99.90;;;;;;5032897;28;20280;-85
2022/07/15 02:00:10;;;;;;;11.07;2.83;;;18.50;99.90;;;;;;5032686;28;20210;-85
2022/07/15 02:02:38;;;;;;;2.95;2.72;;;18.50;99.90;;;;;;5032663;28;20234;-85
2022/07/15 02:05:07;;;;;;;3.22;2.78;;;18.50;99.90;;;;;;5032798;28;20234;-86
2022/07/15 02:07:36;;;;;;;2.63;2.42;;;18.40;99.90;;;;;;5032698;28;20234;-86
2022/07/15 02:10:06;;;;;;;5.15;3.20;;;18.40;99.90;;;;;;5032316;28;20250;-86
2022/07/15 02:12:35;;;;;;;3.30;3.00;;;18.40;99.90;;;;;;5032723;28;20249;-85
2022/07/15 02:15:04;;;;;;;3.60;3.30;;;18.20;99.90;;;;;;5032648;28;20286;-86
2022/07/15 02:17:33;;;;;;;4.03;3.65;;;18.00;99.90;;;;;;5032741;28;20210;-86
2022/07/15 02:20:01;;;;;;;6.38;3.17;;;17.90;99.90;;;;;;5032610;28;20202;-86
2022/07/15 02:22:29;;;;;;;4.22;3.55;;;17.70;99.90;;;;;;5032496;28;20268;-86
2022/07/15 02:24:58;;;;;;;3.00;2.80;;;17.70;99.90;;;;;;5032984;28;20218;-86
2022/07/15 02:27:26;;;;;;;5.10;3.88;;;17.60;99.90;;;;;;5033119;28;20202;-86
2022/07/15 02:29:56;;;;;;;3.92;3.60;;;17.50;99.90;;;;;;5032330;28;20238;-86
2022/07/15 02:32:27;;;;;;;3.65;3.35;;;17.40;99.90;;;;;;5032385;28;20268;-86
2022/07/15 02:34:55;;;;;;;3.95;3.55;;;17.30;99.90;;;;;;5032514;28;20234;-88
2022/07/15 02:37:23;;;;;;;4.68;4.10;;;17.20;99.90;;;;;;5032703;28;20275;-88
2022/07/15 02:39:52;;;;;;;3.80;3.50;;;17.20;99.90;;;;;;5032496;28;20198;-88
2022/07/15 02:42:20;;;;;;;6.22;4.15;;;17.20;99.90;;;;;;5032402;28;20210;-88
2022/07/15 02:44:49;;;;;;;8.18;3.97;;;17.20;99.90;;;;;;5032845;28;20230;-88
2022/07/15 02:47:18;;;;;;;4.53;4.13;;;17.00;99.90;;;;;;5033064;28;20241;-88
2022/07/15 02:49:47;;;;;;;4.95;4.50;;;17.00;99.90;;;;;;5032425;28;20222;-88
2022/07/15 02:52:15;;;;;;;5.63;4.80;;;17.00;99.90;;;;;;5032154;28;20210;-88
2022/07/15 02:54:43;;;;;;;5.18;4.60;;;16.90;99.90;;;;;;5033087;28;20222;-87
2022/07/15 02:57:11;;;;;;;5.10;4.60;;;17.00;99.90;;;;;;5036223;28;20214;-88
2022/07/15 02:59:40;;;;;;;6.82;5.25;;;17.00;99.90;;;;;;5036232;28;20210;-88
2022/07/15 03:02:08;;;;;;;4.90;4.30;;;17.00;99.90;;;;;;5036053;28;20237;-88
2022/07/15 03:04:38;;;;;;;5.15;4.75;;;17.00;99.90;;;;;;5035691;28;20289;-88
2022/07/15 03:07:06;;;;;;;8.43;4.32;;;17.00;99.90;;;;;;5035900;28;20206;-88
2022/07/15 03:09:35;;;;;;;5.30;4.60;;;17.00;99.90;;;;;;5035628;28;20253;-87
2022/07/15 03:12:03;;;;;;;5.30;4.80;;;17.10;99.90;;;;;;5035970;28;20198;-88
2022/07/15 03:14:32;;;;;;;7.72;5.05;;;17.10;99.90;;;;;;5035894;28;20238;-88
2022/07/15 03:17:00;;;;;;;4.80;4.40;;;17.10;99.90;;;;;;5036056;28;20207;-88
2022/07/15 03:19:28;;;;;;;4.75;4.32;;;17.20;99.90;;;;;;5035723;28;20202;-88
2022/07/15 03:21:58;;;;;;;8.90;5.38;;;17.20;99.90;;;;;;5035584;28;20206;-88
2022/07/15 03:24:27;;;;;;;5.97;4.68;;;17.30;99.90;;;;;;5035732;28;20235;-88
2022/07/15 03:26:55;;;;;;;4.35;4.05;;;17.30;99.90;;;;;;5035753;28;20233;-88
2022/07/15 03:29:24;;;;;;;4.82;4.43;;;17.30;99.90;;;;;;5035412;28;20218;-88
2022/07/15 03:31:53;;;;;;;5.20;4.80;;;17.30;99.90;;;;;;5035437;28;20206;-88
2022/07/15 03:34:21;;;;;;;4.30;4.00;;;17.40;99.90;;;;;;5035254;28;20230;-88
2022/07/15 03:36:50;;;;;;;4.70;4.30;;;17.40;99.90;;;;;;5035391;28;20206;-88
2022/07/15 03:39:20;;;;;;;4.18;3.88;;;17.40;99.90;;;;;;5035659;28;20199;-89
2022/07/15 03:41:48;;;;;;;4.53;4.03;;;17.40;99.90;;;;;;5035300;28;20198;-88
2022/07/15 03:44:17;;;;;;;4.80;4.40;;;17.40;99.90;;;;;;5035549;28;20218;-88
2022/07/15 03:46:46;;;;;;;4.55;4.15;;;17.40;99.90;;;;;;5035226;28;20210;-88
2022/07/15 03:49:14;;;;;;;4.68;4.25;;;17.40;99.90;;;;;;5035261;28;20222;-88
2022/07/15 03:51:43;;;;;;;4.40;4.10;;;17.50;99.90;;;;;;5035336;28;20276;-88
2022/07/15 03:54:11;;;;;;;4.53;3.72;;;17.40;99.90;;;;;;5035208;28;20226;-88
2022/07/15 03:56:41;;;;;;;4.95;4.45;;;17.50;99.90;;;;;;5035061;28;20199;-88
2022/07/15 03:59:10;;;;;;;4.15;3.85;;;17.50;99.90;;;;;;5034943;28;20202;-88
2022/07/15 04:01:38;;;;;;;5.05;4.55;;;17.60;99.90;;;;;;5035089;28;20202;-88
2022/07/15 04:04:07;;;;;;;5.03;4.63;;;17.50;99.90;;;;;;5034623;28;20242;-88
2022/07/15 04:06:35;;;;;;;9.30;4.50;;;17.60;99.90;;;;;;5034921;28;20252;-88
2022/07/15 04:09:03;;;;;;;5.72;4.90;;;17.70;99.90;;;;;;5034590;28;20233;-88
2022/07/15 04:11:31;;;;;;;5.15;4.55;;;17.70;99.90;;;;;;5034837;28;20211;-88
2022/07/15 04:14:01;;;;;;;5.80;4.80;;;17.70;99.90;;;;;;5034742;28;20222;-88
2022/07/15 04:16:30;;;;;;;5.78;4.68;;;17.70;99.90;;;;;;5034866;28;20207;-88
2022/07/15 04:18:58;;;;;;;6.03;4.75;;;17.80;99.90;;;;;;5034710;28;20213;-88
2022/07/15 04:21:26;;;;;;;4.85;4.45;;;17.80;99.90;;;;;;5034544;28;20206;-88
2022/07/15 04:23:55;;;;;;;5.53;5.03;;;17.90;99.90;;;;;;5034377;28;20273;-88
2022/07/15 04:26:23;;;;;;;5.30;4.57;;;18.00;99.90;;;;;;5034277;28;20203;-88
2022/07/15 04:28:52;;;;;;;5.35;4.65;;;18.00;99.90;;;;;;5034608;28;20202;-88
2022/07/15 04:31:24;;;;;;;4.30;4.00;;;18.10;99.90;;;;;;5034322;28;20254;-85
2022/07/15 04:33:52;;;;;;;5.43;4.63;;;18.10;99.90;;;;;;5034570;28;20258;-85
2022/07/15 04:36:21;;;;;;;7.30;5.60;;;18.10;99.90;;;;;;5034133;28;20206;-85
2022/07/15 04:38:49;;;;;;;5.15;4.63;;;18.10;99.90;;;;;;5034488;28;20222;-85
2022/07/15 04:41:18;;;;;;;4.20;3.90;;;18.10;99.90;;;;;;5034058;28;20202;-85
2022/07/15 04:43:46;;;;;;;4.88;4.38;;;18.10;99.90;;;;;;5034141;28;20234;-84
2022/07/15 04:46:14;;;;;;;4.78;4.35;;;18.10;99.90;;;;;;5034719;28;20206;-84
2022/07/15 04:51:29;;;;;;;4.10;3.75;;;18.10;99.90;;;;;;5034032;28;20234;-84
2022/07/15 04:53:58;;;;;;;4.35;4.03;;;18.10;99.90;;;;;;5034177;28;20254;-85
2022/07/15 04:56:34;;;;;;;8.40;4.13;;;18.20;99.90;;;;;;5033840;28;20260;-84
2022/07/15 04:59:02;;;;;;;4.65;4.25;;;18.20;99.90;;;;;;5033810;28;20234;-85
2022/07/15 05:01:31;;;;;;;5.20;4.72;;;18.30;99.90;;;;;;5033974;28;20210;-85
2022/07/15 05:04:01;;;;;;;5.03;4.55;;;18.30;99.90;;;;;;5033750;28;20252;-84
2022/07/15 05:06:33;;;;;;;7.65;4.50;;;18.40;99.90;;;;;;5033540;28;20210;-84
2022/07/15 05:09:02;;;;;;;4.43;4.03;;;18.50;99.90;;;;;;5033800;28;20241;-84
2022/07/15 05:11:30;;;;;;;4.47;4.07;;;18.50;99.90;;;;;;5033652;28;20250;-85
2022/07/15 05:13:58;;;;;;;4.05;3.60;;;18.60;99.90;;;;;;5033858;28;20226;-85
2022/07/15 05:16:27;;;;;;;5.88;3.90;;;18.70;99.90;;;;;;5033986;28;20271;-84
2022/07/15 05:18:57;;;;;;;4.82;3.90;;;18.70;99.90;;;;;;5033125;28;20234;-84
2022/07/15 05:21:27;;;;;;;10.48;4.18;;;18.80;99.90;;;;;;5033011;28;20210;-84
2022/07/15 05:23:55;;;;;;;4.13;3.63;;;18.80;99.90;;;;;;5033299;28;20226;-84
2022/07/15 05:26:43;;;;;;;4.35;3.95;;;18.80;99.90;;;;;;5033683;28;20220;-84
2022/07/15 05:29:13;;;;;;;5.07;3.88;;;18.70;99.90;;;;;;5033441;28;20273;-85
2022/07/15 05:31:44;;;;;;;3.78;3.38;;;18.50;99.90;;;;;;5032992;28;20218;-84
2022/07/15 05:34:12;;;;;;;4.82;3.92;;;18.60;99.90;;;;;;5032711;28;20226;-84
2022/07/15 05:36:42;;;;;;;3.75;3.35;;;18.50;99.90;;;;;;5033634;28;20272;-84
2022/07/15 05:39:11;;;;;;;3.22;3.00;;;18.50;99.90;;;;;;5033204;28;20202;-84
2022/07/15 05:41:39;;;;;;;4.35;3.50;;;18.50;99.90;;;;;;5033330;28;20252;-84
2022/07/15 05:44:15;;;;;;;3.60;3.30;;;18.50;99.90;;;;;;5033350;28;20285;-84
2022/07/15 05:46:43;;;;;;;4.45;4.05;;;18.50;99.90;;;;;;5032783;28;20253;-84
2022/07/15 05:49:12;;;;;;;3.58;3.28;;;18.50;99.90;;;;;;5033129;28;20210;-84
2022/07/15 05:51:42;;;;;;;4.03;3.55;;;18.60;99.90;;;;;;5032669;28;20344;-84
2022/07/15 05:54:13;;;;;;;4.13;3.25;;;18.60;99.90;;;;;;5032881;28;20245;-84
2022/07/15 05:56:50;;;;;;;3.50;3.03;;;18.70;99.90;;;;;;5033278;28;20206;-84
2022/07/15 06:03:26;;;;;;;3.83;3.53;;;18.60;99.90;;;;;;4876327;29;20199;-84
2022/07/15 06:05:57;;;;;;;5.13;2.80;;;18.60;99.90;;;;;;4919309;28;20221;-84
2022/07/15 06:08:27;;;;;;;2.53;2.28;;;18.70;99.90;;;;;;4972197;28;20204;-83
2022/07/15 06:10:55;;;;;;;2.88;2.67;;;18.80;99.90;;;;;;4971699;28;20220;-84
2022/07/15 06:13:24;;;;;;;3.20;2.90;;;18.90;99.90;;;;;;4972006;28;20212;-84
2022/07/15 06:15:52;;;;;;;2.95;2.75;;;18.90;99.90;;;;;;4972042;28;20263;-84
2022/07/15 06:18:21;;;;;;;2.78;2.58;;;18.90;99.90;;;;;;4972243;28;20216;-84
2022/07/15 06:20:49;;;;;;;2.55;2.35;;;19.00;99.90;;;;;;4972061;28;20205;-84
2022/07/15 06:23:17;;;;;;;2.92;2.08;;;19.00;99.90;;;;;;4971428;28;20247;-84
2022/07/15 06:25:47;;;;;;;2.95;2.65;;;19.10;99.90;;;;;;4972038;28;20208;-84
2022/07/15 06:28:16;;;;;;;2.47;2.33;;;19.00;99.90;;;;;;4971802;28;20232;-84
2022/07/15 06:30:44;;;;;;;2.80;2.60;;;19.20;99.90;;;;;;4974008;28;20319;-84
2022/07/15 06:33:12;;;;;;;2.20;2.00;;;19.30;99.90;;;;;;4975517;28;20264;-84
2022/07/15 06:35:41;;;;;;;2.75;2.08;;;19.30;99.90;;;;;;4975941;28;20208;-84
2022/07/15 06:38:12;;;;;;;4.22;2.50;;;19.50;99.90;;;;;;4975569;28;20267;-84
2022/07/15 06:40:40;;;;;;;2.33;2.20;;;19.50;99.90;;;;;;5008417;28;20206;-84
2022/07/15 06:43:13;;;;;;;1.95;1.85;;;19.60;99.90;;;;;;5036638;28;20214;-84
2022/07/15 06:45:42;;;;;;;5.72;2.40;;;19.60;99.90;;;;;;5036546;28;20207;-84
2022/07/15 06:48:10;;;;;;;2.30;2.10;;;19.70;99.90;;;;;;5036492;28;20210;-84
2022/07/15 06:50:38;;;;;;;4.93;2.55;;;19.70;99.90;;;;;;5036018;28;20242;-84
2022/07/15 06:53:06;;;;;;;2.90;1.88;;;19.80;99.90;;;;;;5036060;28;20207;-84
2022/07/15 06:55:35;;;;;;;3.00;2.08;;;19.90;99.90;;;;;;5036230;28;20246;-84
2022/07/15 06:58:04;;;;;;;2.65;2.00;;;19.90;99.90;;;;;;5036245;28;20264;-85
2022/07/15 07:00:36;;;;;;;3.25;2.30;;;20.00;99.90;;;;;;5036356;28;20293;-84
2022/07/15 07:03:05;;;;;;;2.05;1.85;;;20.20;99.90;;;;;;5035733;28;20213;-84
2022/07/15 07:05:34;;;;;;;2.22;1.70;;;20.30;99.90;;;;;;5035546;28;20234;-84
2022/07/15 07:08:02;;;;;;;1.88;1.70;;;20.30;99.90;;;;;;5035672;28;20202;-85
2022/07/15 07:10:31;;;;;;;1.85;1.55;;;20.30;99.90;;;;;;5035766;28;20214;-85
2022/07/15 07:12:59;;;;;;;2.22;1.90;;;20.30;99.90;;;;;;5036024;28;20206;-85
2022/07/15 07:15:28;;;;;;;1.80;1.70;;;20.60;99.90;;;;;;5035951;28;20226;-85
2022/07/15 07:17:57;;;;;;;2.25;1.92;;;20.80;99.90;;;;;;5035557;28;20216;-85
2022/07/15 07:20:26;;;;;;;2.20;1.90;;;21.00;99.90;;;;;;5035494;28;20257;-84
2022/07/15 07:22:55;;;;;;;1.92;1.83;;;21.10;99.90;;;;;;5035584;28;20260;-84
2022/07/15 07:25:23;;;;;;;2.17;1.98;;;21.50;99.90;;;;;;5035925;28;20280;-84
2022/07/15 07:27:51;;;;;;;3.80;1.80;;;21.80;99.90;;;;;;5035842;28;20210;-85
2022/07/15 07:30:20;;;;;;;2.42;2.22;;;22.30;99.90;;;;;;5035280;28;20260;-84
2022/07/15 07:32:50;;;;;;;1.77;1.67;;;22.70;99.90;;;;;;5034896;28;20243;-84
2022/07/15 07:35:20;;;;;;;2.22;1.70;;;23.50;99.90;;;;;;5035385;28;20234;-84
2022/07/15 07:37:49;;;;;;;1.55;1.45;;;24.10;99.90;;;;;;5035414;28;20206;-85
2022/07/15 07:40:17;;;;;;;2.22;2.00;;;24.90;99.90;;;;;;5034563;28;20203;-84
2022/07/15 07:42:46;;;;;;;2.70;1.75;;;25.00;99.90;;;;;;5035622;28;20206;-84
2022/07/15 07:45:14;;;;;;;1.90;1.80;;;25.60;99.90;;;;;;5035694;28;20222;-84
2022/07/15 07:47:43;;;;;;;2.08;1.50;;;25.70;99.90;;;;;;5035522;28;20241;-84
2022/07/15 07:50:11;;;;;;;1.85;1.55;;;26.20;98.90;;;;;;5035335;28;20210;-84
2022/07/15 07:52:41;;;;;;;1.98;1.88;;;26.30;96.70;;;;;;5035132;28;20222;-84
2022/07/15 07:55:10;;;;;;;1.50;1.40;;;26.70;96.00;;;;;;5035267;28;20241;-85
2022/07/15 07:57:48;;;;;;;3.20;1.90;;;26.00;94.60;;;;;;5035347;28;20228;-84
2022/07/15 08:00:17;;;;;;;2.03;1.75;;;26.20;94.70;;;;;;5034756;28;20205;-85
2022/07/15 08:02:46;;;;;;;3.28;1.80;;;27.30;93.80;;;;;;5034653;28;20229;-85
2022/07/15 08:05:16;;;;;;;1.98;1.63;;;28.10;93.00;;;;;;5034662;28;20231;-85
2022/07/15 08:08:07;;;;;;;3.50;1.92;;;29.20;91.20;;;;;;5035386;28;20213;-85
2022/07/15 08:10:35;;;;;;;1.60;1.50;;;30.20;87.10;;;;;;5034584;28;20240;-84
2022/07/15 08:13:04;;;;;;;2.67;1.63;;;30.60;86.00;;;;;;5034715;28;20217;-85
2022/07/15 08:15:32;;;;;;;1.67;1.58;;;31.20;78.80;;;;;;5034622;28;20222;-84
2022/07/15 08:18:01;;;;;;;2.05;1.60;;;31.40;77.80;;;;;;5034643;28;20264;-85
2022/07/15 08:20:31;;;;;;;1.58;1.48;;;31.80;75.60;;;;;;5034318;28;20261;-85
2022/07/15 08:23:01;;;;;;;1.95;1.77;;;32.60;76.70;;;;;;5034875;28;20252;-85
2022/07/15 08:25:31;;;;;;;1.80;1.48;;;33.30;72.60;;;;;;5034366;28;20222;-85
2022/07/15 08:28:00;;;;;;;1.83;1.55;;;34.20;69.30;;;;;;5034499;28;20238;-85
2022/07/15 08:30:29;;;;;;;1.38;1.27;;;34.20;64.60;;;;;;5034378;28;20277;-85
2022/07/15 08:32:58;;;;;;;1.83;1.70;;;33.90;63.10;;;;;;5033988;28;20279;-85
2022/07/15 08:35:28;;;;;;;1.40;1.30;;;33.30;63.50;;;;;;5034360;28;20276;-85
2022/07/15 08:37:56;;;;;;;1.63;1.48;;;33.00;66.90;;;;;;5034724;28;20289;-85
2022/07/15 08:40:27;;;;;;;2.00;1.63;;;33.40;65.60;;;;;;5034223;28;20206;-85
2022/07/15 08:42:56;;;;;;;1.23;1.15;;;33.40;62.70;;;;;;5034474;28;20233;-85
2022/07/15 08:45:24;;;;;;;2.13;1.52;;;32.70;67.70;;;;;;5034350;28;20234;-85
2022/07/15 08:47:53;;;;;;;7.57;2.03;;;33.10;64.30;;;;;;5033952;28;20206;-85
2022/07/15 08:50:23;;;;;;;2.60;1.70;;;33.00;62.60;;;;;;5033917;28;20221;-84
2022/07/15 08:52:52;;;;;;;6.55;1.88;;;32.60;62.60;;;;;;5033096;28;20253;-85
2022/07/15 08:55:21;;;;;;;1.67;1.58;;;32.90;62.80;;;;;;5034007;28;20331;-85
2022/07/15 08:57:53;;;;;;;1.55;1.40;;;32.80;61.80;;;;;;5034184;28;20229;-85
2022/07/15 09:00:27;;;;;;;1.90;1.40;;;32.50;62.30;;;;;;5033520;28;20235;-85
2022/07/15 09:03:00;;;;;;;1.77;1.67;;;32.50;59.60;;;;;;5033971;28;20211;-85
2022/07/15 09:05:32;;;;;;;1.90;1.70;;;33.20;59.70;;;;;;5034030;28;20246;-85
2022/07/15 09:08:03;;;;;;;1.88;1.55;;;33.40;62.80;;;;;;5033698;28;20240;-86
2022/07/15 09:10:49;;;;;;;2.03;1.40;;;34.00;58.40;;;;;;5033376;28;20210;-85
2022/07/15 09:13:28;;;;;;;5.40;1.77;;;33.70;57.90;;;;;;5033493;28;20221;-85
2022/07/15 09:15:57;;;;;;;1.98;1.50;;;33.70;57.80;;;;;;5033484;28;20236;-85
2022/07/15 09:18:27;;;;;;;1.73;1.63;;;33.60;59.40;;;;;;5034009;28;20225;-85
2022/07/15 09:20:59;;;;;;;2.55;1.63;;;33.30;56.30;;;;;;5033507;28;20226;-85
2022/07/15 09:23:33;;;;;;;1.98;1.40;;;32.00;57.40;;;;;;5033620;28;20206;-85
2022/07/15 09:26:23;;;;;;;2.00;1.42;;;32.10;57.70;;;;;;5033601;28;20217;-85
2022/07/15 09:28:58;;;;;;;1.50;1.40;;;32.60;57.10;;;;;;5033403;28;20237;-85
2022/07/15 09:37:20;;;;;;;2.03;1.42;;;32.20;57.30;;;;;;5011616;28;20221;-85
2022/07/15 09:39:57;;;;;;;2.78;1.73;;;30.30;56.90;;;;;;5013492;28;20202;-85
2022/07/15 09:46:09;;;;;;;1.95;1.48;;;30.30;61.90;;;;;;4961997;28;20253;-86
2022/07/15 09:48:41;;;;;;;2.22;1.25;;;31.60;59.90;;;;;;4993827;28;20207;-86
2022/07/15 09:51:10;;;;;;;1.95;1.67;;;32.70;59.60;;;;;;4993446;28;20207;-85
2022/07/15 09:53:40;;;;;;;1.70;1.60;;;33.50;57.90;;;;;;4993514;28;20227;-86
2022/07/15 09:56:10;;;;;;;1.75;1.65;;;33.90;55.10;;;;;;4993685;28;20288;-86
2022/07/15 09:58:40;;;;;;;1.27;1.20;;;33.60;53.60;;;;;;4993734;28;20234;-86
2022/07/15 10:01:11;;;;;;;2.90;1.77;;;33.60;54.90;;;;;;4993300;28;20239;-86
2022/07/15 10:03:41;;;;;;;1.88;1.73;;;33.60;53.90;;;;;;4993324;28;20223;-86
2022/07/15 10:06:17;;;;;;;2.20;1.80;;;33.90;56.10;;;;;;4993481;28;20201;-86
2022/07/15 10:08:50;;;;;;;1.52;1.42;;;33.90;53.80;;;;;;4993727;28;20199;-85
2022/07/15 10:11:18;;;;;;;2.00;1.50;;;33.70;52.40;;;;;;4993265;28;20294;-85
2022/07/15 10:14:03;;;;;;;6.25;1.70;;;33.20;54.00;;;;;;4993464;28;20234;-86
2022/07/15 10:16:57;;;;;;;1.20;1.20;;;32.90;53.40;;;;;;4993562;28;20207;-86
2022/07/15 10:19:41;;;;;;;1.52;1.42;;;31.60;56.80;;;;;;4993067;28;20215;-86
2022/07/15 10:22:17;;;;;;;1.70;1.60;;;31.40;57.00;;;;;;4993273;28;20215;-86
2022/07/15 10:24:56;;;;;;;3.80;1.60;;;30.30;56.50;;;;;;4993156;28;20251;-85
2022/07/15 10:27:47;;;;;;;2.22;1.80;;;30.30;57.40;;;;;;4993226;28;20208;-86
2022/07/15 10:30:20;;;;;;;3.22;1.88;;;30.10;57.40;;;;;;4992944;28;20226;-85
2022/07/15 10:33:17;;;;;;;4.38;1.80;;;29.70;58.80;;;;;;4992926;28;20215;-85
2022/07/15 10:35:48;;;;;;;2.25;1.90;;;29.40;58.20;;;;;;4992662;28;20254;-85
2022/07/15 10:38:25;;;;;;;2.72;1.80;;;29.30;58.70;;;;;;4992827;28;20214;-85
2022/07/15 10:40:59;;;;;;;1.20;1.15;;;29.20;58.90;;;;;;4993301;28;20212;-85
2022/07/15 10:43:46;;;;;;;2.13;1.58;;;29.90;60.20;;;;;;4992981;28;20281;-86
2022/07/15 10:46:28;;;;;;;1.73;1.63;;;30.00;58.50;;;;;;4993186;28;20212;-86
2022/07/15 10:49:30;;;;;;;3.75;1.70;;;30.20;58.40;;;;;;4993090;28;20207;-85
2022/07/15 10:52:17;;;;;;;1.50;1.40;;;30.10;58.70;;;;;;4991306;28;20211;-86
2022/07/15 10:54:57;;;;;;;13.73;1.85;;;29.60;59.50;;;;;;4993002;28;20239;-86
2022/07/15 10:57:53;;;;;;;8.52;1.92;;;29.50;60.70;;;;;;4993566;28;20211;-86
2022/07/15 11:00:28;;;;;;;3.35;2.05;;;29.20;61.00;;;;;;4992807;28;20216;-86
2022/07/15 11:03:05;;;;;;;3.70;2.83;;;28.70;61.00;;;;;;4992851;28;20220;-86
2022/07/15 11:05:35;;;;;;;2.35;2.25;;;28.80;61.50;;;;;;4992698;28;20261;-85
2022/07/15 11:08:36;;;;;;;4.95;2.80;;;29.40;63.50;;;;;;4992963;28;20254;-86
2022/07/15 11:11:38;;;;;;;2.15;1.55;;;30.00;62.00;;;;;;4992813;28;20214;-85
2022/07/15 11:14:51;;;;;;;2.20;2.00;;;30.60;59.70;;;;;;4992920;28;20227;-85
2022/07/15 11:17:25;;;;;;;3.90;1.60;;;31.60;57.90;;;;;;4995525;28;20242;-85
2022/07/15 11:19:56;;;;;;;1.63;1.52;;;32.00;57.70;;;;;;4996070;28;20276;-85
2022/07/15 11:22:27;;;;;;;1.67;1.58;;;32.00;56.90;;;;;;4996448;28;20215;-85
2022/07/15 11:24:57;;;;;;;2.33;1.90;;;32.00;56.50;;;;;;4996303;28;20235;-85
2022/07/15 11:27:26;;;;;;;2.35;1.88;;;31.30;55.90;;;;;;4996386;28;20211;-85
2022/07/15 11:30:01;;;;;;;2.63;1.77;;;31.20;56.80;;;;;;4996412;28;20286;-85
2022/07/15 11:32:30;;;;;;;1.50;1.40;;;31.40;57.00;;;;;;4995825;28;20234;-85
2022/07/15 11:35:00;;;;;;;1.90;1.70;;;31.50;56.40;;;;;;4996091;28;20282;-85
2022/07/15 11:37:31;;;;;;;2.20;2.00;;;31.50;57.10;;;;;;4996133;28;20215;-85
2022/07/15 11:40:09;;;;;;;1.95;1.77;;;31.30;56.60;;;;;;4996057;28;20234;-85
2022/07/15 11:45:37;;;;;;;1.80;1.70;;;30.20;58.10;;;;;;4995977;28;20234;-85
2022/07/15 11:48:12;;;;;;;1.83;1.73;;;29.60;58.20;;;;;;4995859;28;20208;-86
2022/07/15 11:50:51;;;;;;;1.58;1.48;;;29.30;58.80;;;;;;4996115;28;20215;-85
2022/07/15 11:53:20;;;;;;;2.22;1.85;;;29.00;59.40;;;;;;4995779;28;20200;-88
2022/07/15 11:55:54;;;;;;;2.83;1.95;;;29.00;61.00;;;;;;4995767;28;20237;-89
2022/07/15 11:58:29;;;;;;;4.40;2.10;;;28.90;60.30;;;;;;4995759;28;20207;-89
2022/07/15 12:01:03;;;;;;;2.22;2.03;;;28.80;59.60;;;;;;4995479;28;20208;-86
2022/07/15 12:03:33;;;;;;;7.47;2.00;;;28.60;61.30;;;;;;4995107;28;20238;-89
2022/07/15 12:06:10;;;;;;;1.73;1.63;;;29.10;61.20;;;;;;4995744;28;20204;-89
2022/07/15 12:08:44;;;;;;;1.85;1.65;;;29.70;60.20;;;;;;4995937;28;20222;-89
2022/07/15 12:14:54;;;;;;;1.67;1.58;;;30.70;58.40;;;;;;4935801;29;20220;-88
2022/07/15 12:17:24;;;;;;;3.85;1.73;;;30.90;55.20;;;;;;4993240;28;20219;-88
2022/07/15 12:20:09;;;;;;;2.20;1.65;;;30.20;55.10;;;;;;4995139;28;20227;-88
2022/07/15 12:23:07;;;;;;;1.73;1.58;;;29.60;55.50;;;;;;4995546;28;20227;-85
2022/07/15 12:25:41;;;;;;;3.00;1.88;;;29.40;56.20;;;;;;4995010;28;20223;-85
2022/07/15 12:28:35;;;;;;;4.68;1.67;;;29.60;56.10;;;;;;4995124;28;20270;-89
2022/07/15 12:31:12;;;;;;;1.52;1.42;;;29.40;55.50;;;;;;4994618;28;20283;-85
2022/07/15 12:33:55;;;;;;;3.78;1.92;;;29.90;56.30;;;;;;4994915;28;20223;-85
2022/07/15 12:36:29;;;;;;;2.45;1.95;;;30.20;57.30;;;;;;4994921;28;20303;-85
2022/07/15 12:39:24;;;;;;;1.65;1.55;;;30.20;55.70;;;;;;4994931;28;20238;-88
2022/07/15 12:42:05;;;;;;;1.88;1.65;;;30.00;56.20;;;;;;4994831;28;20227;-88
2022/07/15 12:44:39;;;;;;;1.98;1.88;;;30.00;55.80;;;;;;4994792;28;20235;-85
2022/07/15 12:47:34;;;;;;;1.92;1.80;;;30.10;55.80;;;;;;4994951;28;20276;-88
2022/07/15 12:53:00;;;;;;;1.85;1.75;;;30.60;55.00;;;;;;4994421;28;20207;-89
2022/07/15 12:55:45;;;;;;;1.85;1.70;;;30.60;54.90;;;;;;4994756;28;20307;-88
2022/07/15 12:58:25;;;;;;;2.40;1.73;;;30.50;54.40;;;;;;4994729;28;20207;-89
2022/07/15 13:01:15;;;;;;;2.03;1.90;;;30.50;54.50;;;;;;4994145;28;20203;-85
2022/07/15 13:03:49;;;;;;;4.65;2.25;;;30.40;55.80;;;;;;4994759;28;20227;-85
2022/07/15 13:06:28;;;;;;;2.50;1.95;;;30.00;55.30;;;;;;4995041;28;20299;-85
2022/07/15 13:09:06;;;;;;;2.05;1.80;;;30.40;55.40;;;;;;4994357;28;20203;-85
2022/07/15 13:11:40;;;;;;;1.85;1.75;;;30.50;54.40;;;;;;4994038;28;20215;-86
2022/07/15 13:14:15;;;;;;;2.10;1.65;;;30.60;55.60;;;;;;4994430;28;20243;-85
2022/07/15 13:16:51;;;;;;;1.98;1.80;;;30.50;54.20;;;;;;4994233;28;20206;-85
2022/07/15 13:19:35;;;;;;;1.45;1.38;;;29.90;54.10;;;;;;4994379;28;20294;-85
2022/07/15 13:22:06;;;;;;;1.80;1.70;;;29.70;56.60;;;;;;4994577;28;20219;-85
2022/07/15 13:24:41;;;;;;;2.10;1.42;;;29.80;55.30;;;;;;4994235;28;20286;-88
2022/07/15 13:27:16;;;;;;;2.08;1.80;;;29.90;55.30;;;;;;4994201;28;20206;-89
2022/07/15 13:30:02;;;;;;;1.65;1.55;;;30.00;55.30;;;;;;4994171;28;20204;-88
2022/07/15 13:32:50;;;;;;;2.45;2.00;;;30.20;55.70;;;;;;4993704;28;20216;-88
2022/07/15 13:35:39;;;;;;;2.53;2.15;;;30.10;54.90;;;;;;4994147;28;20223;-89